地図

経路データ

SID SEASON NUMBER BASIN SUBBASIN NAME ISO_TIME NATURE LAT LON WMO_WIND WMO_PRES WMO_AGENCY TRACK_TYPE DIST2LAND LANDFALL IFLAG USA_AGENCY USA_ATCF_ID USA_LAT USA_LON USA_RECORD USA_STATUS USA_WIND USA_PRES USA_SSHS USA_R34_NE USA_R34_SE USA_R34_SW USA_R34_NW USA_R50_NE USA_R50_SE USA_R50_SW USA_R50_NW USA_R64_NE USA_R64_SE USA_R64_SW USA_R64_NW USA_POCI USA_ROCI USA_RMW USA_EYE TOKYO_LAT TOKYO_LON TOKYO_GRADE TOKYO_WIND TOKYO_PRES TOKYO_R50_DIR TOKYO_R50_LONG TOKYO_R50_SHORT TOKYO_R30_DIR TOKYO_R30_LONG TOKYO_R30_SHORT TOKYO_LAND CMA_LAT CMA_LON CMA_CAT CMA_WIND CMA_PRES HKO_LAT HKO_LON HKO_CAT HKO_WIND HKO_PRES NEWDELHI_LAT NEWDELHI_LON NEWDELHI_GRADE NEWDELHI_WIND NEWDELHI_PRES NEWDELHI_CI NEWDELHI_DP NEWDELHI_POCI REUNION_LAT REUNION_LON REUNION_TYPE REUNION_WIND REUNION_PRES REUNION_TNUM REUNION_CI REUNION_RMW REUNION_R34_NE REUNION_R34_SE REUNION_R34_SW REUNION_R34_NW REUNION_R50_NE REUNION_R50_SE REUNION_R50_SW REUNION_R50_NW REUNION_R64_NE REUNION_R64_SE REUNION_R64_SW REUNION_R64_NW BOM_LAT BOM_LON BOM_TYPE BOM_WIND BOM_PRES BOM_TNUM BOM_CI BOM_RMW BOM_R34_NE BOM_R34_SE BOM_R34_SW BOM_R34_NW BOM_R50_NE BOM_R50_SE BOM_R50_SW BOM_R50_NW BOM_R64_NE BOM_R64_SE BOM_R64_SW BOM_R64_NW BOM_ROCI BOM_POCI BOM_EYE BOM_POS_METHOD BOM_PRES_METHOD NADI_LAT NADI_LON NADI_CAT NADI_WIND NADI_PRES WELLINGTON_LAT WELLINGTON_LON WELLINGTON_WIND WELLINGTON_PRES DS824_LAT DS824_LON DS824_STAGE DS824_WIND DS824_PRES TD9636_LAT TD9636_LON TD9636_STAGE TD9636_WIND TD9636_PRES TD9635_LAT TD9635_LON TD9635_WIND TD9635_PRES TD9635_ROCI NEUMANN_LAT NEUMANN_LON NEUMANN_CLASS NEUMANN_WIND NEUMANN_PRES MLC_LAT MLC_LON MLC_CLASS MLC_WIND MLC_PRES USA_GUST BOM_GUST BOM_GUST_PER REUNION_GUST REUNION_GUST_PER USA_SEAHGT USA_SEARAD_NE USA_SEARAD_SE USA_SEARAD_SW USA_SEARAD_NW STORM_SPEED STORM_DIR
1967009N07144 1967 6 WP MM NOT_NAMED 1967-01-09 00:00:00 TS 6.90000 143.700 main 1058 1058 __O___________ -1 6.90000 143.700 0 1002 7 278
1967009N07144 1967 6 WP MM NOT_NAMED 1967-01-09 03:00:00 TS 6.95258 143.335 main 1083 1083 __P___________ -1 6.95258 143.335 0 1002 7 278
1967009N07144 1967 6 WP MM NOT_NAMED 1967-01-09 06:00:00 TS 7.00000 143.000 main 1092 1081 __O___________ -1 7.00000 143.000 0 1002 6 278
1967009N07144 1967 6 WP MM NOT_NAMED 1967-01-09 09:00:00 TS 7.04243 142.707 main 1081 1078 __P___________ -1 7.04243 142.707 0 1003 6 280
1967009N07144 1967 6 WP MM NOT_NAMED 1967-01-09 12:00:00 TS 7.10000 142.400 main 1078 1070 __O___________ -1 7.10000 142.400 0 1004 7 284
1967009N07144 1967 6 WP MM NOT_NAMED 1967-01-09 15:00:00 TS 7.20750 142.015 main 1072 1066 __P___________ -1 7.20750 142.015 0 1004 8 284
1967009N07144 1967 6 WP MM NOT_NAMED 1967-01-09 18:00:00 TS 7.30000 141.600 main 1066 1051 __O___________ -1 7.30000 141.600 0 1004 8 278
1967009N07144 1967 6 WP MM NOT_NAMED 1967-01-09 21:00:00 TS 7.32246 141.200 main 1051 1038 __P___________ -1 7.32246 141.200 0 1004 8 270
1967009N07144 1967 6 WP MM NOT_NAMED 1967-01-10 00:00:00 TS 7.30000 140.800 main 1038 1026 __O___________ -1 7.30000 140.800 0 1004 8 265
1967009N07144 1967 6 WP MM NOT_NAMED 1967-01-10 03:00:00 TS 7.25748 140.393 main 1026 1005 __P___________ -1 7.25748 140.393 0 1004 8 263
1967009N07144 1967 6 WP MM NOT_NAMED 1967-01-10 06:00:00 TS 7.20000 140.000 main 1005 990 __O___________ -1 7.20000 140.000 0 1004 7 262
1967009N07144 1967 6 WP MM NOT_NAMED 1967-01-10 09:00:00 TS 7.14992 139.658 main 980 962 __P___________ -1 7.14992 139.658 0 1004 7 262
1967009N07144 1967 6 WP MM NOT_NAMED 1967-01-10 12:00:00 TS 7.10000 139.300 main 962 945 __O___________ -1 7.10000 139.300 0 1004 8 263
1967009N07144 1967 6 WP MM NOT_NAMED 1967-01-10 15:00:00 TS 7.05747 138.873 main 945 917 __P___________ -1 7.05747 138.873 0 1004 9 264
1967009N07144 1967 6 WP MM NOT_NAMED 1967-01-10 18:00:00 TS 7.00000 138.400 main 917 889 __O___________ -1 7.00000 138.400 0 1005 10 261
1967009N07144 1967 6 WP MM NOT_NAMED 1967-01-10 21:00:00 TS 6.90001 137.892 main 889 863 __P___________ -1 6.90001 137.892 0 1005 10 259
1967009N07144 1967 6 WP MM NOT_NAMED 1967-01-11 00:00:00 TS 6.80000 137.400 main 863 843 __O___________ -1 6.80000 137.400 0 1005 9 260
1967009N07144 1967 6 WP MM NOT_NAMED 1967-01-11 03:00:00 TS 6.74239 137.000 main 843 836 __P___________ -1 6.74239 137.000 0 1005 8 263
1967009N07144 1967 6 WP MM NOT_NAMED 1967-01-11 06:00:00 TS 6.70000 136.600 main 836 819 __O___________ -1 6.70000 136.600 0 1005 9 264
1967009N07144 1967 6 WP MM NOT_NAMED 1967-01-11 09:00:00 TS 6.64249 136.115 main 819 818 __P___________ -1 6.64249 136.115 0 1005 10 264
1967009N07144 1967 6 WP MM NOT_NAMED 1967-01-11 12:00:00 TS 6.60000 135.600 main 818 818 __O___________ -1 6.60000 135.600 0 1005 10 266
1967009N07144 1967 6 WP MM NOT_NAMED 1967-01-11 15:00:00 TS 6.57747 135.092 main 818 799 __P___________ -1 6.57747 135.092 0 1005 10 270
1967009N07144 1967 6 WP MM NOT_NAMED 1967-01-11 18:00:00 TS 6.60000 134.600 main 799 770 __O___________ -1 6.60000 134.600 0 1005 10 276
1967009N07144 1967 6 WP MM NOT_NAMED 1967-01-11 21:00:00 TS 6.67746 134.135 main 761 734 __P___________ -1 6.67746 134.135 0 1005 9 283
1967009N07144 1967 6 WP MM NOT_NAMED 1967-01-12 00:00:00 TS 6.80000 133.700 main 734 709 __O___________ -1 6.80000 133.700 0 1005 9 287
1967009N07144 1967 6 WP MM NOT_NAMED 1967-01-12 03:00:00 TS 6.93491 133.307 main 709 694 __P___________ -1 6.93491 133.307 0 1004 9 291
1967009N07144 1967 6 WP MM NOT_NAMED 1967-01-12 06:00:00 TS 7.10000 132.900 main 694 640 __O___________ -1 7.10000 132.900 0 1004 10 291
1967009N07144 1967 6 WP MM NOT_NAMED 1967-01-12 09:00:00 TS 7.27752 132.407 main 640 584 __P___________ -1 7.27752 132.407 0 1004 11 292
1967009N07144 1967 6 WP MM NOT_NAMED 1967-01-12 12:00:00 TS 7.50000 131.900 main 584 540 __O___________ -1 7.50000 131.900 0 1004 11 298
1967009N07144 1967 6 WP MM NOT_NAMED 1967-01-12 15:00:00 TS 7.77741 131.450 main 529 487 __P___________ -1 7.77741 131.450 0 1004 11 304
1967009N07144 1967 6 WP MM NOT_NAMED 1967-01-12 18:00:00 TS 8.10000 131.000 main 487 436 __O___________ -1 8.10000 131.000 1 23 1004 12 305
1967009N07144 1967 6 WP MM NOT_NAMED 1967-01-12 21:00:00 TS 8.44252 130.493 main 436 394 __P___________ -1 8.44252 130.493 1 26 1004 12 305
1967009N07144 1967 6 WP MM NOT_NAMED 1967-01-13 00:00:00 TS 8.80000 130.000 main 394 363 __O___________ -1 8.80000 130.000 1 29 1004 11 308
1967009N07144 1967 6 WP MM NOT_NAMED 1967-01-13 03:00:00 TS 9.14238 129.592 main 363 328 __P___________ -1 9.14238 129.592 1 29 1004 11 312
1967009N07144 1967 6 WP MM NOT_NAMED 1967-01-13 06:00:00 TS 9.50000 129.200 main 328 293 __O___________ -1 9.50000 129.200 1 29 1004 11 312
1967009N07144 1967 6 WP MM NOT_NAMED 1967-01-13 09:00:00 TS 9.90005 128.735 main 285 261 __P___________ -1 9.90005 128.735 1 29 1004 12 312
1967009N07144 1967 6 WP MM NOT_NAMED 1967-01-13 12:00:00 TS 10.3000 128.300 main 261 244 __O___________ -1 10.3000 128.300 1 29 1004 11 316
1967009N07144 1967 6 WP MM NOT_NAMED 1967-01-13 15:00:00 TS 10.6649 127.985 main 242 207 __P___________ -1 10.6649 127.985 1 26 1004 9 320
1967009N07144 1967 6 WP MM NOT_NAMED 1967-01-13 18:00:00 TS 11.0000 127.700 main 207 177 __O___________ -1 11.0000 127.700 1 23 1004 9 318
1967009N07144 1967 6 WP MM NOT_NAMED 1967-01-13 21:00:00 TS 11.3224 127.380 main 177 147 __P___________ -1 11.3224 127.380 1 23 1004 9 311
1967009N07144 1967 6 WP MM NOT_NAMED 1967-01-14 00:00:00 TS 11.6000 127.000 main 147 117 __O___________ -1 11.6000 127.000 1 23 1004 10 302
1967009N07144 1967 6 WP MM NOT_NAMED 1967-01-14 03:00:00 TS 11.8525 126.523 main 111 58 __P___________ -1 11.8525 126.523 1 23 1004 11 292
1967009N07144 1967 6 WP MM NOT_NAMED 1967-01-14 06:00:00 TS 12.0000 126.000 main 58 10 __O___________ -1 12.0000 126.000 1 23 1004 10 279
1967009N07144 1967 6 WP MM NOT_NAMED 1967-01-14 09:00:00 TS 12.0099 125.500 main 10 0 __P___________ -1 12.0099 125.500 1 1005 10 264
1967009N07144 1967 6 WP MM NOT_NAMED 1967-01-14 12:00:00 TS 11.9000 125.000 main 0 0 __O___________ -1 11.9000 125.000 0 1006 10 254
1967009N07144 1967 6 WP MM NOT_NAMED 1967-01-14 15:00:00 TS 11.7299 124.500 main 24 11 __P___________ -1 11.7299 124.500 0 1006 11 248
1967009N07144 1967 6 WP MM NOT_NAMED 1967-01-14 18:00:00 TS 11.5000 124.000 main 24 22 __O___________ -1 11.5000 124.000 0 1007 11 244
1967009N07144 1967 6 WP MM NOT_NAMED 1967-01-14 21:00:00 TS 11.2527 123.500 main 43 0 __P___________ -1 11.2527 123.500 0 1007 11 243
1967009N07144 1967 6 WP MM NOT_NAMED 1967-01-15 00:00:00 TS 11.0000 123.000 main 0 __O___________ -1 11.0000 123.000 0 1008 11 243

デジタル台風データ・検索

IBTrACS Databaseについて

本データベースは、米国NOAAが公開する1842年以降の世界の熱帯低気圧のベストトラックデータアーカイブInternational Best Track Archive for Climate Stewardship (IBTrACS)を、ウェブで閲覧しやすい形式に変換したものです。

最終更新日:2021-11-26